Terminal Aerodrome Forecast
Issued by NWS Northern Indiana

Home | Current Version | Previous Version | Text Only | Print | Product List | Glossary On
Versions: 1 2 3 4 5 6 7 8 9 10 11 12 13 14 15 16
094
FTUS43 KIWX 061403 AAA
TAFFWA
TAF AMD
KFWA 061403Z 0614/0712 07009KT P6SM SCT060 OVC090
      TEMPO 0615/0616 -RA BKN060
     FM061600 05006KT 6SM -RA BR OVC025
      TEMPO 0617/0619 5SM -RA BR OVC018
     FM061900 28008KT P6SM OVC015
     FM070000 27013KT P6SM BKN020=

USA.gov is the U.S. government's official web portal to all federal, state and local government web resources and services.